Time;durP1;ratioP1;P1;durP2;ratioP2;P2;SDS_P1;SDS_P2;PMS_P1;PMS_P2;Temp;Humidity;BMP_temperature;BMP_pressure;BME280_temperature;BME280_humidity;BME280_pressure;Samples;Min_cycle;Max_cycle;Signal;HPM_P1;HPM_P2
2021/05/23 00:02:15;;;;;;;7.35;2.67;;;9.90;99.90;;;;;;4969323;28;20035;-70
2021/05/23 00:04:41;;;;;;;7.97;2.47;;;9.90;99.90;;;;;;4970627;28;20030;-69
2021/05/23 00:07:09;;;;;;;7.05;2.30;;;9.90;99.90;;;;;;4969494;28;20031;-70
2021/05/23 00:09:35;;;;;;;12.75;2.83;;;9.90;99.90;;;;;;4970280;28;20758;-68
2021/05/23 00:12:01;;;;;;;6.50;3.10;;;9.80;99.90;;;;;;4969482;28;20046;-68
2021/05/23 00:14:26;;;;;;;5.78;2.42;;;9.80;99.90;;;;;;4972781;28;20038;-68
2021/05/23 00:16:52;;;;;;;5.97;2.50;;;9.80;99.90;;;;;;4984774;28;20039;-69
2021/05/23 00:19:18;;;;;;;8.88;2.60;;;9.70;99.90;;;;;;4984955;28;20085;-69
2021/05/23 00:21:44;;;;;;;6.45;2.40;;;9.80;99.90;;;;;;4969184;28;20058;-69
2021/05/23 00:24:09;;;;;;;7.80;3.15;;;9.80;99.90;;;;;;4965985;28;20403;-68
2021/05/23 00:26:36;;;;;;;11.15;3.28;;;9.80;99.90;;;;;;4969151;28;20050;-69
2021/05/23 00:29:06;;;;;;;9.45;2.70;;;9.80;99.90;;;;;;4967621;28;20134;-70
2021/05/23 00:31:33;;;;;;;13.02;3.28;;;9.80;99.90;;;;;;4970439;28;20066;-70
2021/05/23 00:33:59;;;;;;;6.95;2.92;;;9.90;99.90;;;;;;4970175;28;20042;-68
2021/05/23 00:36:25;;;;;;;9.60;3.17;;;9.90;99.90;;;;;;4967829;28;20039;-69
2021/05/23 00:38:51;;;;;;;9.15;2.88;;;9.90;99.90;;;;;;4969848;28;20085;-68
2021/05/23 00:41:17;;;;;;;8.13;4.03;;;9.90;99.90;;;;;;4970076;28;20039;-68
2021/05/23 00:43:42;;;;;;;11.73;3.30;;;9.90;99.90;;;;;;4966920;28;20847;-69
2021/05/23 00:46:08;;;;;;;11.43;3.47;;;9.90;99.90;;;;;;4969530;28;20100;-68
2021/05/23 00:48:33;;;;;;;8.85;3.53;;;9.90;99.90;;;;;;4969320;28;20667;-68
2021/05/23 00:50:59;;;;;;;8.70;4.13;;;9.90;99.90;;;;;;4969726;28;20478;-69
2021/05/23 00:53:25;;;;;;;20.23;3.65;;;9.80;99.90;;;;;;4969850;28;20039;-69
2021/05/23 00:55:51;;;;;;;10.90;3.38;;;9.80;99.90;;;;;;4969841;28;20422;-69
2021/05/23 00:58:18;;;;;;;9.07;3.70;;;9.80;99.90;;;;;;4968480;28;20383;-69
2021/05/23 01:00:45;;;;;;;7.57;3.85;;;9.70;99.90;;;;;;4969746;28;20058;-69
2021/05/23 01:03:28;;;;;;;11.45;4.15;;;9.70;99.90;;;;;;4968081;28;20183;-68
2021/05/23 01:06:03;;;;;;;8.68;3.42;;;9.70;99.90;;;;;;4967950;28;20074;-68
2021/05/23 01:08:28;;;;;;;11.23;4.25;;;9.70;99.90;;;;;;4983330;28;20446;-69
2021/05/23 01:11:05;;;;;;;14.80;4.38;;;9.70;99.90;;;;;;4969843;28;20035;-68
2021/05/23 01:13:34;;;;;;;12.02;4.25;;;9.60;99.90;;;;;;4967843;28;20141;-68
2021/05/23 01:16:01;;;;;;;17.17;4.78;;;9.60;99.90;;;;;;4967961;28;20055;-69
2021/05/23 01:18:37;;;;;;;8.52;4.13;;;9.60;99.90;;;;;;4968256;28;20647;-69
2021/05/23 01:21:07;;;;;;;11.93;4.32;;;9.60;99.90;;;;;;4968874;28;20069;-70
2021/05/23 01:23:39;;;;;;;10.27;3.80;;;9.50;99.90;;;;;;4968320;28;20086;-68
2021/05/23 01:26:09;;;;;;;12.10;3.97;;;9.50;99.90;;;;;;4969263;28;20085;-68
2021/05/23 01:28:48;;;;;;;10.00;4.88;;;9.50;99.90;;;;;;4967199;28;20031;-69
2021/05/23 01:31:16;;;;;;;14.18;4.50;;;9.50;99.90;;;;;;4965880;28;20042;-68
2021/05/23 01:33:43;;;;;;;12.23;4.60;;;9.50;99.90;;;;;;4969084;28;20693;-68
2021/05/23 01:36:10;;;;;;;12.32;4.63;;;9.50;99.90;;;;;;4968273;28;20039;-69
2021/05/23 01:38:36;;;;;;;13.95;4.75;;;9.50;99.90;;;;;;4967977;28;20054;-68
2021/05/23 01:41:05;;;;;;;13.32;5.15;;;9.50;99.90;;;;;;4983658;28;20050;-69
2021/05/23 01:43:32;;;;;;;16.17;4.82;;;9.60;99.90;;;;;;4967009;28;20039;-69
2021/05/23 01:45:58;;;;;;;16.98;4.35;;;9.50;99.90;;;;;;4964588;28;20121;-69
2021/05/23 01:48:25;;;;;;;11.77;3.90;;;9.50;99.90;;;;;;4966460;28;20129;-70
2021/05/23 01:50:50;;;;;;;17.30;4.70;;;9.50;99.90;;;;;;4968155;28;20102;-68
2021/05/23 01:53:16;;;;;;;11.70;4.53;;;9.50;99.90;;;;;;4967236;28;20038;-70
2021/05/23 01:55:42;;;;;;;12.07;4.57;;;9.50;99.90;;;;;;4966933;28;20038;-68
2021/05/23 01:58:08;;;;;;;14.40;4.82;;;9.50;99.90;;;;;;4967119;28;20745;-68
2021/05/23 02:00:45;;;;;;;14.05;5.15;;;9.50;99.90;;;;;;4968178;28;20458;-68
2021/05/23 02:03:12;;;;;;;11.23;4.85;;;9.50;99.90;;;;;;4965955;28;20030;-69
2021/05/23 02:05:42;;;;;;;13.02;5.30;;;9.50;99.90;;;;;;4968166;28;20508;-68
2021/05/23 02:08:08;;;;;;;9.25;4.63;;;9.40;99.90;;;;;;4968235;28;20690;-68
2021/05/23 02:10:34;;;;;;;12.85;5.20;;;9.40;99.90;;;;;;4964393;28;20479;-64
2021/05/23 02:13:04;;;;;;;13.52;5.50;;;9.40;99.90;;;;;;4983849;28;20069;-65
2021/05/23 02:15:30;;;;;;;11.07;4.93;;;9.40;99.90;;;;;;4967995;28;20031;-68
2021/05/23 02:17:56;;;;;;;18.27;5.60;;;9.40;99.90;;;;;;4968185;28;20483;-67
2021/05/23 02:20:29;;;;;;;16.50;5.75;;;9.40;99.90;;;;;;4968634;28;20045;-65
2021/05/23 02:22:57;;;;;;;17.08;6.38;;;9.40;99.90;;;;;;4966909;28;20089;-68
2021/05/23 02:25:24;;;;;;;12.93;5.47;;;9.40;99.90;;;;;;4968355;28;20038;-68
2021/05/23 02:28:01;;;;;;;14.02;6.28;;;9.40;99.90;;;;;;4967488;28;20121;-68
2021/05/23 02:30:34;;;;;;;18.73;6.10;;;9.40;99.90;;;;;;4982838;28;20035;-67
2021/05/23 02:33:00;;;;;;;14.20;6.15;;;9.40;99.90;;;;;;4968208;28;20458;-67
2021/05/23 02:35:27;;;;;;;16.73;5.68;;;9.40;99.90;;;;;;4967973;28;20038;-68
2021/05/23 02:37:54;;;;;;;17.20;5.55;;;9.40;99.90;;;;;;4966734;28;20061;-67
2021/05/23 02:40:24;;;;;;;15.85;5.75;;;9.40;99.90;;;;;;4983023;28;20074;-67
2021/05/23 02:42:50;;;;;;;16.17;5.50;;;9.40;99.90;;;;;;4966526;28;20043;-67
2021/05/23 02:45:17;;;;;;;15.73;5.68;;;9.40;99.90;;;;;;4980799;28;20294;-68
2021/05/23 02:47:45;;;;;;;17.05;6.32;;;9.50;99.90;;;;;;4966872;28;20034;-65
2021/05/23 02:50:14;;;;;;;15.80;5.70;;;9.50;99.90;;;;;;4967655;28;20106;-68
2021/05/23 02:52:40;;;;;;;13.60;5.13;;;9.60;99.90;;;;;;4982241;28;20049;-68
2021/05/23 02:55:07;;;;;;;16.13;5.38;;;9.60;99.90;;;;;;4982641;28;20709;-68
2021/05/23 02:57:37;;;;;;;14.52;5.78;;;9.60;99.90;;;;;;4966283;28;20047;-69
2021/05/23 03:00:05;;;;;;;;;;;9.60;99.90;;;;;;4986061;28;20031;-68
2021/05/23 03:02:30;;;;;;;16.85;5.90;;;9.60;99.90;;;;;;4972417;28;19917;-67
2021/05/23 03:04:56;;;;;;;20.52;6.32;;;9.60;99.90;;;;;;4971422;28;20030;-67
2021/05/23 03:07:22;;;;;;;18.15;7.00;;;9.70;99.90;;;;;;4971645;28;20513;-68
2021/05/23 03:09:48;;;;;;;16.67;7.05;;;9.70;99.90;;;;;;4971024;28;20031;-68
2021/05/23 03:12:13;;;;;;;17.40;6.63;;;9.70;99.90;;;;;;4971708;28;20060;-68
2021/05/23 03:14:41;;;;;;;15.57;6.50;;;9.70;99.90;;;;;;4971654;28;20486;-66
2021/05/23 03:17:07;;;;;;;14.50;7.15;;;9.80;99.90;;;;;;4986059;28;20467;-68
2021/05/23 03:19:34;;;;;;;13.15;6.78;;;9.80;99.90;;;;;;4970934;28;20114;-67
2021/05/23 03:22:01;;;;;;;21.17;7.30;;;9.80;99.90;;;;;;4968128;28;20038;-68
2021/05/23 03:24:27;;;;;;;19.73;7.50;;;9.80;99.90;;;;;;4971101;28;20117;-68
2021/05/23 03:26:52;;;;;;;17.65;7.30;;;9.80;99.90;;;;;;4969461;28;20174;-67
2021/05/23 03:29:18;;;;;;;17.88;8.75;;;9.90;99.90;;;;;;4985695;28;20054;-66
2021/05/23 03:31:43;;;;;;;15.70;8.20;;;9.90;99.90;;;;;;4971216;28;20406;-68
2021/05/23 03:34:09;;;;;;;19.35;8.10;;;10.00;99.90;;;;;;4970754;28;20050;-67
2021/05/23 03:36:34;;;;;;;17.60;8.43;;;9.90;99.90;;;;;;4966439;28;20038;-68
2021/05/23 03:39:00;;;;;;;19.13;9.25;;;10.00;99.90;;;;;;4970476;28;20503;-67
2021/05/23 03:41:25;;;;;;;16.77;8.88;;;10.00;99.90;;;;;;4971069;28;20708;-68
2021/05/23 03:43:51;;;;;;;22.25;9.57;;;10.00;99.90;;;;;;4965540;28;20032;-68
2021/05/23 03:46:16;;;;;;;19.95;9.85;;;9.90;99.90;;;;;;4969563;28;20030;-67
2021/05/23 03:48:42;;;;;;;21.52;9.60;;;9.90;99.90;;;;;;4970523;28;20146;-66
2021/05/23 03:51:07;;;;;;;21.83;9.52;;;9.90;99.90;;;;;;4970524;28;20027;-68
2021/05/23 03:53:33;;;;;;;25.77;10.20;;;9.90;99.90;;;;;;4970658;28;20081;-68
2021/05/23 03:55:58;;;;;;;21.05;10.82;;;9.80;99.90;;;;;;4971022;28;20037;-68
2021/05/23 03:58:24;;;;;;;23.25;9.65;;;9.80;99.90;;;;;;4969657;28;20042;-68
2021/05/23 04:00:50;;;;;;;27.20;11.13;;;9.80;99.90;;;;;;4970963;28;20027;-67
2021/05/23 04:03:15;;;;;;;24.80;10.68;;;9.80;99.90;;;;;;4969096;28;20041;-67
2021/05/23 04:05:41;;;;;;;26.23;12.23;;;9.80;99.90;;;;;;4970695;28;20046;-69
2021/05/23 04:08:07;;;;;;;27.30;11.70;;;9.80;99.90;;;;;;4969752;28;20035;-68
2021/05/23 04:10:47;;;;;;;25.05;12.02;;;9.80;99.90;;;;;;4969356;28;20092;-68
2021/05/23 04:13:13;;;;;;;23.27;9.90;;;9.80;99.90;;;;;;4967334;28;20066;-68
2021/05/23 04:15:38;;;;;;;18.55;9.18;;;9.80;99.90;;;;;;4969344;28;20054;-67
2021/05/23 04:18:04;;;;;;;15.98;8.10;;;9.80;99.90;;;;;;4984469;28;20041;-69
2021/05/23 04:20:30;;;;;;;17.15;8.05;;;9.70;99.90;;;;;;4970692;28;20137;-68
2021/05/23 04:22:56;;;;;;;13.15;7.35;;;9.70;99.90;;;;;;4970658;28;20695;-67
2021/05/23 04:25:23;;;;;;;11.48;6.03;;;9.70;99.90;;;;;;4970018;28;20494;-68
2021/05/23 04:27:50;;;;;;;11.63;6.10;;;9.70;99.90;;;;;;4968745;28;20035;-68
2021/05/23 04:30:18;;;;;;;10.90;6.57;;;9.60;99.90;;;;;;4984647;28;20039;-68
2021/05/23 04:32:44;;;;;;;12.88;6.75;;;9.60;99.90;;;;;;4980142;28;20498;-68
2021/05/23 04:35:11;;;;;;;13.65;6.43;;;9.60;99.90;;;;;;4968585;28;20129;-68
2021/05/23 04:37:37;;;;;;;14.30;6.32;;;9.60;99.90;;;;;;4966446;28;20034;-67
2021/05/23 04:40:04;;;;;;;17.50;7.20;;;9.60;99.90;;;;;;4967591;28;20636;-66
2021/05/23 04:42:30;;;;;;;14.40;7.28;;;9.60;99.90;;;;;;4984221;28;20114;-68
2021/05/23 04:44:56;;;;;;;11.85;6.75;;;9.60;99.90;;;;;;4977614;28;20134;-68
2021/05/23 04:47:23;;;;;;;11.43;5.43;;;9.70;99.90;;;;;;4966553;28;20073;-68
2021/05/23 04:49:49;;;;;;;11.65;4.93;;;9.70;99.90;;;;;;4986508;28;20078;-68
2021/05/23 04:52:14;;;;;;;7.75;4.18;;;9.70;99.90;;;;;;4968170;28;20062;-68
2021/05/23 04:54:41;;;;;;;6.03;3.80;;;9.70;99.90;;;;;;4968397;28;20097;-68
2021/05/23 04:57:08;;;;;;;7.55;3.80;;;9.70;99.90;;;;;;4967982;28;20027;-68
2021/05/23 04:59:34;;;;;;;4.15;2.60;;;9.70;99.90;;;;;;4973137;28;20042;-68
2021/05/23 05:01:59;;;;;;;7.30;3.42;;;9.80;99.90;;;;;;4984505;28;20039;-69
2021/05/23 05:04:25;;;;;;;2.72;1.80;;;9.90;99.90;;;;;;4969234;28;20483;-68
2021/05/23 05:06:51;;;;;;;3.00;1.98;;;9.90;99.90;;;;;;4969684;28;20027;-68
2021/05/23 05:09:16;;;;;;;2.72;1.85;;;10.00;99.90;;;;;;4968183;28;20038;-67
2021/05/23 05:11:42;;;;;;;4.10;1.70;;;9.90;99.90;;;;;;4968449;28;20031;-68
2021/05/23 05:14:12;;;;;;;5.78;2.28;;;9.90;99.90;;;;;;4969585;28;20090;-68
2021/05/23 05:16:39;;;;;;;6.20;2.38;;;9.90;99.90;;;;;;4969285;28;20556;-68
2021/05/23 05:19:05;;;;;;;4.90;2.85;;;9.90;99.90;;;;;;4968707;28;20039;-67
2021/05/23 05:21:30;;;;;;;6.45;3.00;;;9.90;99.90;;;;;;4968804;28;20031;-68
2021/05/23 05:23:56;;;;;;;5.25;2.67;;;9.80;99.90;;;;;;4969588;28;20483;-68
2021/05/23 05:26:22;;;;;;;5.38;3.38;;;9.80;99.90;;;;;;4968778;28;20038;-69
2021/05/23 05:28:48;;;;;;;7.55;3.78;;;9.80;99.90;;;;;;4983798;28;20126;-68
2021/05/23 05:31:13;;;;;;;13.23;5.35;;;9.80;99.90;;;;;;4969246;28;20815;-68
2021/05/23 05:33:39;;;;;;;13.57;5.55;;;9.90;99.90;;;;;;4975576;28;20066;-67
2021/05/23 05:36:05;;;;;;;14.95;6.93;;;9.90;99.90;;;;;;4968983;28;20670;-67
2021/05/23 05:38:31;;;;;;;18.73;8.48;;;10.00;99.90;;;;;;4979108;28;20035;-68
2021/05/23 05:40:56;;;;;;;27.95;8.32;;;10.00;99.90;;;;;;4968641;28;20084;-69
2021/05/23 05:43:23;;;;;;;17.92;8.32;;;10.20;99.90;;;;;;4968771;28;20068;-68
2021/05/23 05:45:48;;;;;;;15.02;7.90;;;10.30;99.90;;;;;;4968114;28;20753;-68
2021/05/23 05:48:14;;;;;;;23.65;8.95;;;10.40;99.90;;;;;;4966039;28;20038;-69
2021/05/23 05:50:40;;;;;;;20.58;6.30;;;10.50;99.90;;;;;;4982668;28;20093;-68
2021/05/23 05:53:06;;;;;;;18.98;6.28;;;10.60;99.90;;;;;;4967180;28;20035;-68
2021/05/23 05:55:32;;;;;;;16.33;5.90;;;10.60;99.90;;;;;;4967861;28;20406;-68
2021/05/23 05:57:57;;;;;;;19.38;5.25;;;10.60;99.90;;;;;;4968116;28;20492;-69
2021/05/23 06:00:23;;;;;;;18.42;5.72;;;10.70;99.90;;;;;;4968280;28;20049;-65
2021/05/23 06:02:48;;;;;;;16.80;5.45;;;10.60;99.90;;;;;;4968688;28;20030;-68
2021/05/23 06:05:14;;;;;;;9.65;3.05;;;10.60;99.90;;;;;;4967498;28;20065;-69
2021/05/23 06:07:42;;;;;;;4.18;2.63;;;10.60;99.90;;;;;;4967801;28;20097;-69
2021/05/23 06:10:08;;;;;;;6.47;1.92;;;10.50;99.90;;;;;;4966344;28;20035;-66
2021/05/23 06:12:34;;;;;;;2.78;1.73;;;10.40;99.90;;;;;;4958276;28;20077;-69
2021/05/23 06:14:59;;;;;;;4.88;1.85;;;10.30;99.90;;;;;;4964638;28;20122;-68
2021/05/23 06:17:25;;;;;;;5.35;2.00;;;10.20;99.90;;;;;;4963531;28;20027;-67
2021/05/23 06:19:50;;;;;;;4.05;1.60;;;10.10;99.90;;;;;;4965669;28;20478;-69
2021/05/23 06:22:16;;;;;;;2.35;1.52;;;10.10;99.90;;;;;;4962733;28;20031;-68
2021/05/23 06:24:42;;;;;;;3.90;2.05;;;10.10;99.90;;;;;;4967429;28;20051;-68
2021/05/23 06:27:07;;;;;;;2.97;1.30;;;10.10;99.90;;;;;;4953578;28;20618;-68
2021/05/23 06:29:33;;;;;;;3.65;1.42;;;10.00;99.90;;;;;;4955982;28;20038;-68
2021/05/23 06:31:58;;;;;;;4.20;1.65;;;10.00;99.90;;;;;;4955629;28;20039;-68
2021/05/23 06:34:25;;;;;;;3.63;1.75;;;9.90;99.90;;;;;;4962886;28;20066;-68
2021/05/23 06:36:51;;;;;;;3.13;1.88;;;10.00;99.90;;;;;;4964074;28;20113;-68
2021/05/23 06:39:17;;;;;;;3.58;1.85;;;10.00;99.90;;;;;;4966286;28;20050;-69
2021/05/23 06:41:43;;;;;;;5.53;1.83;;;10.00;99.90;;;;;;4966919;28;20034;-66
2021/05/23 06:44:08;;;;;;;3.50;2.10;;;10.10;99.90;;;;;;4970481;28;20050;-68
2021/05/23 06:46:34;;;;;;;6.95;2.10;;;10.10;99.90;;;;;;4969444;28;20058;-68
2021/05/23 06:48:59;;;;;;;10.45;2.50;;;10.20;99.90;;;;;;4972230;28;20038;-69
2021/05/23 06:51:25;;;;;;;8.82;2.00;;;10.40;99.90;;;;;;4965921;28;20031;-67
2021/05/23 06:53:50;;;;;;;10.68;2.45;;;10.50;99.90;;;;;;4967710;28;20102;-69
2021/05/23 06:56:16;;;;;;;15.15;2.03;;;10.70;99.90;;;;;;4981882;28;20047;-68
2021/05/23 06:58:42;;;;;;;12.07;1.90;;;10.80;99.90;;;;;;4966487;28;20039;-69
2021/05/23 07:01:08;;;;;;;12.75;2.10;;;11.00;99.90;;;;;;4965733;28;20031;-68
2021/05/23 07:03:34;;;;;;;10.77;1.92;;;11.10;99.90;;;;;;4967230;28;20402;-68
2021/05/23 07:06:00;;;;;;;16.17;2.65;;;11.20;99.90;;;;;;4967197;28;20039;-68
2021/05/23 07:08:25;;;;;;;14.63;2.08;;;11.40;99.90;;;;;;4971586;28;20520;-69
2021/05/23 07:10:51;;;;;;;14.07;2.40;;;11.70;99.90;;;;;;4965984;28;20146;-69
2021/05/23 07:13:16;;;;;;;11.45;1.67;;;12.00;99.90;;;;;;4969086;28;20125;-69
2021/05/23 07:15:42;;;;;;;14.70;2.08;;;12.40;99.90;;;;;;4969955;28;20047;-67
2021/05/23 07:18:08;;;;;;;15.30;2.40;;;13.00;99.90;;;;;;4965815;28;20496;-69
2021/05/23 07:20:33;;;;;;;6.82;1.35;;;14.00;99.90;;;;;;4967285;28;20131;-67
2021/05/23 07:22:59;;;;;;;9.65;2.45;;;14.90;99.90;;;;;;4969461;28;20035;-69
2021/05/23 07:25:24;;;;;;;5.50;1.33;;;15.50;99.90;;;;;;4969946;28;20100;-69
2021/05/23 07:27:50;;;;;;;8.82;1.27;;;15.40;99.90;;;;;;4974427;28;20042;-68
2021/05/23 07:30:16;;;;;;;8.32;1.48;;;14.80;99.90;;;;;;4967821;28;20038;-69
2021/05/23 07:32:41;;;;;;;8.45;1.52;;;14.50;99.90;;;;;;4967238;28;20069;-69
2021/05/23 07:35:07;;;;;;;13.23;2.13;;;14.10;99.90;;;;;;4964706;28;20066;-70
2021/05/23 07:37:33;;;;;;;11.70;2.45;;;13.80;99.90;;;;;;4967636;28;20103;-68
2021/05/23 07:39:59;;;;;;;6.30;1.17;;;13.80;99.90;;;;;;4982353;28;20491;-68
2021/05/23 07:42:25;;;;;;;7.82;1.40;;;13.90;99.90;;;;;;4967172;28;20726;-69
2021/05/23 07:44:50;;;;;;;6.82;1.25;;;13.90;99.90;;;;;;4974083;28;20548;-69
2021/05/23 07:47:16;;;;;;;6.18;1.45;;;13.70;99.90;;;;;;4973538;28;20808;-68
2021/05/23 07:49:42;;;;;;;5.78;1.67;;;13.60;99.90;;;;;;4970991;28;20046;-67
2021/05/23 07:52:09;;;;;;;12.07;1.55;;;13.60;99.90;;;;;;4975893;28;20030;-69
2021/05/23 07:54:35;;;;;;;10.05;1.30;;;13.60;99.90;;;;;;4972421;28;20118;-66
2021/05/23 07:57:01;;;;;;;8.27;2.08;;;13.70;99.90;;;;;;4973814;28;20035;-68
2021/05/23 07:59:28;;;;;;;6.85;1.55;;;14.00;99.90;;;;;;4973089;28;20057;-68
2021/05/23 08:01:55;;;;;;;6.63;1.40;;;14.10;99.90;;;;;;4970907;28;20082;-69
2021/05/23 08:04:21;;;;;;;9.75;1.75;;;14.10;99.90;;;;;;4963493;28;20463;-66
2021/05/23 08:06:46;;;;;;;4.95;1.17;;;14.20;99.90;;;;;;4967392;28;20069;-68
2021/05/23 08:09:12;;;;;;;7.93;1.52;;;13.90;99.90;;;;;;4966754;28;20049;-68
2021/05/23 08:11:37;;;;;;;5.80;1.35;;;14.00;99.90;;;;;;4965847;28;20035;-70
2021/05/23 08:14:03;;;;;;;3.97;0.90;;;14.20;99.90;;;;;;4972345;28;20407;-70
2021/05/23 08:16:29;;;;;;;4.70;0.93;;;14.30;99.90;;;;;;4967249;28;20084;-70
2021/05/23 08:18:55;;;;;;;4.72;0.93;;;14.30;99.90;;;;;;4966173;28;20038;-69
2021/05/23 08:21:20;;;;;;;4.30;0.63;;;14.70;99.90;;;;;;4966556;28;20088;-70
2021/05/23 08:23:46;;;;;;;2.95;0.68;;;15.00;99.90;;;;;;4969573;28;20108;-69
2021/05/23 08:26:12;;;;;;;4.03;1.05;;;15.20;99.90;;;;;;4964813;28;20066;-69
2021/05/23 08:28:37;;;;;;;4.28;0.68;;;16.40;99.90;;;;;;4967706;28;20062;-69
2021/05/23 08:31:03;;;;;;;3.05;0.50;;;17.50;99.90;;;;;;4969235;28;20066;-69
2021/05/23 08:33:30;;;;;;;2.78;0.60;;;18.10;99.90;;;;;;4968051;28;20491;-69
2021/05/23 08:35:56;;;;;;;4.53;0.55;;;18.50;99.90;;;;;;4969440;28;20033;-69
2021/05/23 08:38:22;;;;;;;3.13;0.47;;;18.60;99.90;;;;;;4971910;28;20078;-70
2021/05/23 08:40:48;;;;;;;3.15;0.75;;;18.30;99.90;;;;;;4983986;28;20042;-69
2021/05/23 08:43:15;;;;;;;2.20;0.40;;;18.00;99.10;;;;;;4968719;28;20035;-69
2021/05/23 08:45:41;;;;;;;7.35;1.45;;;17.40;99.90;;;;;;4967186;28;20059;-70
2021/05/23 08:48:07;;;;;;;5.03;0.80;;;17.30;99.90;;;;;;4983226;28;20027;-69
2021/05/23 08:50:33;;;;;;;3.85;0.60;;;17.30;99.90;;;;;;4966912;28;20110;-69
2021/05/23 08:53:03;;;;;;;4.03;0.43;;;17.00;99.90;;;;;;4968785;28;20031;-71
2021/05/23 08:55:32;;;;;;;6.53;0.60;;;17.20;99.90;;;;;;4968063;28;20038;-71
2021/05/23 08:57:59;;;;;;;2.70;0.60;;;17.00;99.90;;;;;;4982573;28;20042;-69
2021/05/23 09:00:26;;;;;;;2.97;0.60;;;16.70;99.90;;;;;;4966412;28;20066;-69
2021/05/23 09:03:04;;;;;;;2.00;0.60;;;16.40;99.90;;;;;;4967868;28;20039;-69
2021/05/23 09:05:29;;;;;;;3.10;1.00;;;15.90;99.90;;;;;;4967386;28;20070;-70
2021/05/23 09:07:55;;;;;;;4.30;0.70;;;15.50;99.90;;;;;;4967996;28;20106;-69
2021/05/23 09:10:29;;;;;;;5.88;0.90;;;15.30;99.90;;;;;;4981759;28;20505;-69
2021/05/23 09:12:55;;;;;;;9.60;1.20;;;15.10;99.90;;;;;;4967338;28;20513;-69
2021/05/23 09:15:22;;;;;;;3.22;0.70;;;14.70;99.90;;;;;;4967278;28;20050;-69
2021/05/23 09:18:06;;;;;;;8.77;0.60;;;14.60;99.90;;;;;;4967163;28;20035;-70
2021/05/23 09:20:34;;;;;;;8.38;1.33;;;14.70;99.90;;;;;;4965862;28;20554;-70
2021/05/23 09:23:01;;;;;;;6.38;0.90;;;14.50;99.90;;;;;;4966819;28;20052;-69
2021/05/23 09:25:34;;;;;;;2.28;0.98;;;14.50;99.90;;;;;;4966752;28;20059;-70
2021/05/23 09:28:05;;;;;;;6.80;0.73;;;14.60;99.90;;;;;;4967009;28;20054;-69
2021/05/23 09:30:33;;;;;;;7.85;1.25;;;14.60;99.90;;;;;;4971077;28;20185;-70
2021/05/23 09:32:58;;;;;;;6.68;0.80;;;14.60;99.90;;;;;;4970945;28;20031;-69
2021/05/23 09:35:26;;;;;;;6.53;0.73;;;14.70;99.90;;;;;;4975814;28;20045;-68
2021/05/23 09:38:18;;;;;;;4.43;1.00;;;14.70;99.90;;;;;;4970820;28;20054;-68
2021/05/23 09:40:45;;;;;;;8.25;1.55;;;14.90;99.90;;;;;;4969653;28;20121;-69
2021/05/23 09:43:21;;;;;;;6.68;0.70;;;15.20;99.90;;;;;;4970948;28;20034;-70
2021/05/23 09:45:52;;;;;;;7.32;1.27;;;15.40;99.90;;;;;;4969775;28;20058;-70
2021/05/23 09:48:22;;;;;;;6.38;1.52;;;15.50;99.90;;;;;;4967015;28;20035;-70
2021/05/23 09:50:50;;;;;;;4.13;0.90;;;15.40;99.90;;;;;;4966924;28;20050;-68
2021/05/23 09:53:24;;;;;;;11.18;1.38;;;15.10;99.90;;;;;;4967121;28;20054;-69
2021/05/23 09:55:51;;;;;;;6.43;1.20;;;14.90;99.90;;;;;;4967042;28;20062;-70
2021/05/23 09:58:23;;;;;;;4.45;1.02;;;14.60;99.90;;;;;;4966810;28;20685;-69
2021/05/23 10:00:48;;;;;;;4.13;1.33;;;14.50;99.90;;;;;;4967235;28;20477;-70
2021/05/23 10:03:22;;;;;;;8.57;1.10;;;14.40;99.90;;;;;;4967626;28;20043;-69
2021/05/23 10:05:47;;;;;;;3.03;0.65;;;14.40;99.90;;;;;;4967361;28;20035;-69
2021/05/23 10:08:14;;;;;;;8.20;0.90;;;14.70;99.90;;;;;;4965752;28;20039;-69
2021/05/23 10:10:40;;;;;;;3.53;0.73;;;14.80;99.90;;;;;;4967420;28;20067;-69
2021/05/23 10:13:05;;;;;;;4.70;1.02;;;15.10;99.90;;;;;;4967131;28;20102;-70
2021/05/23 10:15:31;;;;;;;7.10;0.60;;;15.30;99.90;;;;;;4967405;28;20034;-69
2021/05/23 10:17:57;;;;;;;4.68;0.68;;;15.10;99.90;;;;;;4966960;28;20035;-70
2021/05/23 10:20:26;;;;;;;0.75;0.30;;;15.00;99.90;;;;;;4966784;28;20411;-71
2021/05/23 10:22:53;;;;;;;4.35;0.40;;;14.70;99.90;;;;;;4967494;28;20097;-69
2021/05/23 10:25:20;;;;;;;5.30;0.65;;;14.40;99.90;;;;;;4961542;28;20042;-69
2021/05/23 10:27:47;;;;;;;2.65;0.40;;;14.30;99.90;;;;;;4967239;28;20061;-68
2021/05/23 10:30:14;;;;;;;2.88;0.75;;;14.30;99.90;;;;;;4968429;28;20089;-69
2021/05/23 10:32:41;;;;;;;2.63;0.95;;;14.50;99.90;;;;;;4967832;28;20031;-69
2021/05/23 10:35:32;;;;;;;3.33;0.30;;;14.70;99.90;;;;;;4967619;28;20035;-69
2021/05/23 10:38:05;;;;;;;;;;;14.80;99.90;;;;;;4961946;28;20781;-69
2021/05/23 10:40:31;;;;;;;1.70;0.30;;;15.00;99.90;;;;;;4966418;28;19968;-69
2021/05/23 10:42:59;;;;;;;9.52;0.63;;;15.30;98.70;;;;;;4965717;28;20035;-70
2021/05/23 10:45:28;;;;;;;1.83;0.30;;;15.90;98.20;;;;;;4981086;28;20046;-69
2021/05/23 10:47:55;;;;;;;4.00;0.30;;;16.00;98.10;;;;;;4966539;28;20030;-70
2021/05/23 10:50:50;;;;;;;4.78;0.30;;;16.00;96.70;;;;;;4980707;28;20394;-69
2021/05/23 10:53:16;;;;;;;1.25;0.35;;;15.60;94.80;;;;;;4964706;28;20666;-69
2021/05/23 10:55:55;;;;;;;6.10;0.65;;;15.60;95.50;;;;;;4967662;28;20038;-70
2021/05/23 10:58:22;;;;;;;7.65;0.52;;;15.60;93.00;;;;;;4966259;28;20035;-70
2021/05/23 11:00:57;;;;;;;2.28;0.28;;;15.60;92.70;;;;;;4967078;28;20126;-69
2021/05/23 11:03:25;;;;;;;3.45;0.35;;;15.80;91.00;;;;;;4966240;28;20584;-68
2021/05/23 11:06:05;;;;;;;0.45;0.20;;;16.10;91.40;;;;;;4966859;28;20051;-70
2021/05/23 11:08:35;;;;;;;1.17;0.32;;;16.40;89.40;;;;;;4981016;28;20374;-69
2021/05/23 11:11:01;;;;;;;2.90;0.40;;;16.80;87.00;;;;;;4966633;28;20114;-69
2021/05/23 11:13:26;;;;;;;2.58;0.25;;;17.20;89.30;;;;;;4966343;28;20122;-70
2021/05/23 11:15:53;;;;;;;5.80;0.45;;;17.40;77.70;;;;;;4966354;28;20471;-69
2021/05/23 11:18:21;;;;;;;4.43;0.45;;;17.60;73.00;;;;;;4964581;28;20542;-70
2021/05/23 11:21:07;;;;;;;2.80;0.30;;;17.80;72.90;;;;;;4969045;28;20133;-70
2021/05/23 11:23:43;;;;;;;1.85;0.32;;;17.60;71.10;;;;;;4966435;28;20035;-70
2021/05/23 11:26:15;;;;;;;9.48;0.70;;;17.40;70.70;;;;;;4965519;28;20054;-71
2021/05/23 11:28:47;;;;;;;1.67;0.20;;;17.10;73.00;;;;;;4969510;28;20125;-69
2021/05/23 11:31:18;;;;;;;2.67;0.47;;;17.10;71.80;;;;;;4970444;28;20506;-70
2021/05/23 11:33:48;;;;;;;4.13;0.47;;;17.20;71.70;;;;;;4970061;28;20039;-69
2021/05/23 11:36:18;;;;;;;3.95;0.38;;;17.10;71.40;;;;;;4968736;28;20034;-70
2021/05/23 11:38:44;;;;;;;4.07;0.30;;;16.90;73.70;;;;;;4966566;28;20039;-70
2021/05/23 11:41:10;;;;;;;4.95;0.77;;;16.70;74.80;;;;;;4967524;28;20045;-68
2021/05/23 11:43:35;;;;;;;4.55;0.35;;;16.70;73.10;;;;;;4967687;28;20043;-69
2021/05/23 11:46:03;;;;;;;5.05;0.50;;;16.80;74.50;;;;;;4969555;28;20035;-70
2021/05/23 11:48:40;;;;;;;2.25;0.63;;;16.90;75.30;;;;;;4983981;28;20039;-70
2021/05/23 11:51:13;;;;;;;5.15;0.90;;;17.10;75.50;;;;;;4965821;28;20039;-70
2021/05/23 11:53:46;;;;;;;2.55;0.50;;;17.10;75.20;;;;;;4969862;28;20038;-70
2021/05/23 11:56:17;;;;;;;3.38;0.60;;;17.10;76.00;;;;;;4969584;28;20030;-68
2021/05/23 11:58:51;;;;;;;1.85;0.45;;;17.30;72.30;;;;;;4969124;28;20514;-70
2021/05/23 12:01:22;;;;;;;6.32;0.40;;;17.00;72.20;;;;;;4969729;28;20398;-69
2021/05/23 12:03:57;;;;;;;3.45;1.17;;;17.00;74.40;;;;;;4969042;28;20058;-71
2021/05/23 12:06:23;;;;;;;4.75;0.43;;;16.90;76.00;;;;;;4968672;28;20070;-70
2021/05/23 12:08:48;;;;;;;2.38;0.40;;;16.90;75.00;;;;;;4969123;28;20057;-71
2021/05/23 12:11:14;;;;;;;3.60;0.40;;;16.90;76.30;;;;;;4969486;28;20142;-69
2021/05/23 12:13:48;;;;;;;1.65;0.47;;;17.00;75.70;;;;;;4969379;28;20614;-70
2021/05/23 12:16:17;;;;;;;4.60;0.50;;;17.00;76.00;;;;;;4969086;28;20084;-70
2021/05/23 12:18:52;;;;;;;1.35;0.30;;;17.00;73.80;;;;;;4968697;28;20455;-69
2021/05/23 12:21:19;;;;;;;3.88;0.40;;;16.90;73.70;;;;;;4969232;28;20031;-71
2021/05/23 12:23:48;;;;;;;2.85;0.40;;;16.90;73.80;;;;;;4969600;28;20046;-69
2021/05/23 12:26:15;;;;;;;2.33;0.30;;;16.90;77.30;;;;;;4982010;28;20035;-69
2021/05/23 12:28:46;;;;;;;3.70;0.40;;;17.20;76.70;;;;;;4967146;28;20031;-70
2021/05/23 12:31:14;;;;;;;2.08;0.30;;;17.30;76.20;;;;;;4968310;28;20122;-70
2021/05/23 12:33:47;;;;;;;5.90;1.15;;;17.30;75.60;;;;;;4969286;28;20081;-70
2021/05/23 12:36:14;;;;;;;3.10;0.30;;;17.20;76.50;;;;;;4967560;28;20037;-70
2021/05/23 12:38:58;;;;;;;2.13;0.40;;;17.20;75.20;;;;;;4966233;28;20462;-71
2021/05/23 12:41:39;;;;;;;5.10;1.25;;;17.20;76.50;;;;;;4968273;28;20122;-71
2021/05/23 12:44:18;;;;;;;5.90;0.60;;;17.40;77.00;;;;;;4968242;28;20118;-70
2021/05/23 12:46:44;;;;;;;4.22;0.75;;;17.40;74.90;;;;;;4983630;28;20118;-70
2021/05/23 12:49:18;;;;;;;2.80;0.52;;;17.30;77.00;;;;;;4968656;28;20455;-70
2021/05/23 12:51:44;;;;;;;3.53;0.40;;;17.20;75.80;;;;;;4968628;28;20442;-71